createdAt,value
2022-11-11T00:01:32.075Z,10.10
2022-11-11T00:04:03.800Z,10.10
2022-11-11T00:06:30.485Z,10.10
2022-11-11T00:08:57.159Z,10.10
2022-11-11T00:11:23.854Z,10.20
2022-11-11T00:13:50.528Z,10.10
2022-11-11T00:16:19.943Z,10.10
2022-11-11T00:19:05.719Z,10.10
2022-11-11T00:21:51.941Z,10.00
2022-11-11T00:24:48.310Z,9.90
2022-11-11T00:27:16.713Z,9.90
2022-11-11T00:29:47.122Z,9.90
2022-11-11T00:32:23.010Z,9.80
2022-11-11T00:35:13.477Z,9.80
2022-11-11T00:37:41.877Z,9.70
2022-11-11T00:40:10.090Z,9.70
2022-11-11T00:42:37.073Z,9.70
2022-11-11T00:45:04.215Z,9.80
2022-11-11T00:47:49.506Z,9.80
2022-11-11T00:50:43.800Z,9.80
2022-11-11T00:53:19.406Z,9.80
2022-11-11T00:55:50.495Z,9.80
2022-11-11T00:58:17.183Z,9.80
2022-11-11T01:00:44.488Z,9.80
2022-11-11T01:03:11.333Z,9.80
2022-11-11T01:05:38.753Z,9.80
2022-11-11T01:08:06.071Z,9.80
2022-11-11T01:10:38.816Z,9.80
2022-11-11T01:13:13.157Z,9.90
2022-11-11T01:15:45.857Z,9.90
2022-11-11T01:18:15.051Z,9.80
2022-11-11T01:20:42.107Z,9.80
2022-11-11T01:23:11.299Z,9.80
2022-11-11T01:25:40.313Z,9.80
2022-11-11T01:28:08.326Z,9.80
2022-11-11T01:30:36.280Z,9.80
2022-11-11T01:33:04.012Z,9.80
2022-11-11T01:35:31.120Z,9.70
2022-11-11T01:37:59.390Z,9.70
2022-11-11T01:40:26.776Z,9.60
2022-11-11T01:43:05.690Z,9.50
2022-11-11T01:45:45.161Z,9.50
2022-11-11T01:48:42.301Z,9.50
2022-11-11T01:51:33.560Z,9.40
2022-11-11T01:54:03.803Z,9.30
2022-11-11T01:56:31.024Z,9.30
2022-11-11T01:59:05.903Z,9.20
2022-11-11T02:01:33.984Z,9.20
2022-11-11T02:04:20.744Z,9.20
2022-11-11T02:06:51.199Z,9.20
2022-11-11T02:09:17.997Z,9.10
2022-11-11T02:12:04.023Z,9.10
2022-11-11T02:14:36.953Z,9.20
2022-11-11T02:17:08.110Z,9.10
2022-11-11T02:19:48.488Z,9.20
2022-11-11T02:22:32.828Z,9.20
2022-11-11T02:25:02.620Z,9.30
2022-11-11T02:27:31.517Z,9.30
2022-11-11T02:30:00.499Z,9.40
2022-11-11T02:32:27.439Z,9.40
2022-11-11T02:34:54.371Z,9.50
2022-11-11T02:37:25.180Z,9.50
2022-11-11T02:40:03.632Z,9.50
2022-11-11T02:42:33.352Z,9.60
2022-11-11T02:45:00.057Z,9.60
2022-11-11T02:47:27.442Z,9.60
2022-11-11T02:49:54.604Z,9.60
2022-11-11T02:52:21.729Z,9.60
2022-11-11T02:54:49.366Z,9.60
2022-11-11T02:57:17.130Z,9.60
2022-11-11T02:59:44.744Z,9.60
2022-11-11T03:02:12.028Z,9.60
2022-11-11T03:04:39.170Z,9.50
2022-11-11T03:07:06.874Z,9.50
2022-11-11T03:09:34.661Z,9.40
2022-11-11T03:12:01.636Z,9.40
2022-11-11T03:14:28.526Z,9.40
2022-11-11T03:17:13.865Z,9.30
2022-11-11T03:19:40.587Z,9.30
2022-11-11T03:25:12.717Z,9.20
2022-11-11T03:27:41.008Z,9.10
2022-11-11T03:30:08.225Z,9.10
2022-11-11T03:32:34.887Z,9.00
2022-11-11T03:35:01.556Z,9.00
2022-11-11T03:37:46.923Z,9.00
2022-11-11T03:40:14.075Z,9.00
2022-11-11T03:42:42.039Z,9.00
2022-11-11T03:45:09.218Z,8.90
2022-11-11T03:47:37.018Z,8.90
2022-11-11T03:50:03.956Z,8.90
2022-11-11T03:52:30.670Z,8.80
2022-11-11T03:54:57.395Z,8.80
2022-11-11T03:57:33.464Z,8.70
2022-11-11T04:00:00.322Z,8.70
2022-11-11T04:02:45.492Z,8.60
2022-11-11T04:05:31.086Z,8.60
2022-11-11T04:08:16.559Z,8.70
2022-11-11T04:10:43.241Z,8.70
2022-11-11T04:13:28.734Z,8.80
2022-11-11T04:16:07.692Z,8.80
2022-11-11T04:18:54.431Z,8.90
2022-11-11T04:21:40.461Z,9.00
2022-11-11T04:24:26.426Z,9.10
2022-11-11T04:26:58.480Z,9.10
2022-11-11T04:29:28.480Z,9.10
2022-11-11T04:32:22.608Z,9.10
2022-11-11T04:34:51.363Z,9.10
2022-11-11T04:37:19.135Z,9.20
2022-11-11T04:40:04.491Z,9.10
2022-11-11T04:42:32.019Z,9.10
2022-11-11T04:45:18.193Z,9.10
2022-11-11T04:48:04.670Z,9.10
2022-11-11T04:50:41.554Z,9.10
2022-11-11T04:53:12.001Z,9.00
2022-11-11T04:56:01.967Z,9.00
2022-11-11T04:58:32.259Z,9.00
2022-11-11T05:00:59.197Z,8.90
2022-11-11T05:03:26.504Z,8.80
2022-11-11T05:06:17.791Z,8.80
2022-11-11T05:09:03.792Z,8.70
2022-11-11T05:11:32.951Z,8.60
2022-11-11T05:14:23.478Z,8.50
2022-11-11T05:17:14.025Z,8.50
2022-11-11T05:20:00.407Z,8.40
2022-11-11T05:22:28.174Z,8.40
2022-11-11T05:25:13.865Z,8.40
2022-11-11T05:27:40.859Z,8.40
2022-11-11T05:30:09.937Z,8.40
2022-11-11T05:32:37.004Z,8.30
2022-11-11T05:35:04.091Z,8.30
2022-11-11T05:37:30.803Z,8.30
2022-11-11T05:39:57.445Z,8.30
2022-11-11T05:42:24.199Z,8.30
2022-11-11T05:44:50.969Z,8.30
2022-11-11T05:47:17.750Z,8.40
2022-11-11T05:49:44.590Z,8.40
2022-11-11T05:52:16.212Z,8.40
2022-11-11T05:54:43.875Z,8.40
2022-11-11T05:57:11.026Z,8.30
2022-11-11T05:59:37.719Z,8.40
2022-11-11T06:02:04.534Z,8.40
2022-11-11T06:04:35.958Z,8.50
2022-11-11T06:07:02.729Z,8.50
2022-11-11T06:09:29.532Z,8.50
2022-11-11T06:11:56.225Z,8.60
2022-11-11T06:14:22.912Z,8.60
2022-11-11T06:16:49.692Z,8.60
2022-11-11T06:19:16.400Z,8.70
2022-11-11T06:21:58.269Z,8.70
2022-11-11T06:24:26.887Z,8.70
2022-11-11T06:26:55.423Z,8.70
2022-11-11T06:29:22.802Z,8.80
2022-11-11T06:31:49.625Z,8.80
2022-11-11T06:34:16.854Z,8.80
2022-11-11T06:36:43.626Z,8.90
2022-11-11T06:39:10.344Z,8.90
2022-11-11T06:41:37.015Z,8.90
2022-11-11T06:44:03.910Z,8.90
2022-11-11T06:46:30.615Z,8.90
2022-11-11T06:48:57.466Z,8.90
2022-11-11T06:51:24.292Z,8.90
2022-11-11T06:53:51.205Z,8.90
2022-11-11T06:56:17.920Z,8.90
2022-11-11T06:58:45.643Z,8.90
2022-11-11T07:01:13.587Z,8.90
2022-11-11T07:03:40.489Z,8.90
2022-11-11T07:06:07.358Z,8.90
2022-11-11T07:08:34.148Z,8.90
2022-11-11T07:11:11.124Z,8.90
2022-11-11T07:13:39.456Z,8.90
2022-11-11T07:16:06.538Z,8.80
2022-11-11T07:18:33.199Z,8.80
2022-11-11T07:20:59.913Z,8.90
2022-11-11T07:23:26.613Z,8.90
2022-11-11T07:25:53.277Z,8.90
2022-11-11T07:28:19.969Z,8.90
2022-11-11T07:30:46.636Z,8.90
2022-11-11T07:33:13.325Z,9.00
2022-11-11T07:35:40.067Z,9.10
2022-11-11T07:38:06.768Z,9.10
2022-11-11T07:40:33.451Z,9.20
2022-11-11T07:43:00.245Z,9.30
2022-11-11T07:45:26.922Z,9.30
2022-11-11T07:47:53.599Z,9.40
2022-11-11T07:50:20.287Z,9.40
2022-11-11T07:52:50.385Z,9.50
2022-11-11T07:55:18.237Z,9.60
2022-11-11T07:57:45.420Z,9.60
2022-11-11T08:00:12.792Z,9.70
2022-11-11T08:02:39.504Z,9.70
2022-11-11T08:05:06.419Z,9.70
2022-11-11T08:07:35.378Z,9.80
2022-11-11T08:10:02.450Z,9.80
2022-11-11T08:12:47.609Z,9.90
2022-11-11T08:15:14.599Z,9.90
2022-11-11T08:17:41.352Z,10.00
2022-11-11T08:20:09.704Z,10.10
2022-11-11T08:22:41.588Z,10.10
2022-11-11T08:25:11.432Z,10.10
2022-11-11T08:27:38.711Z,10.20
2022-11-11T08:30:08.663Z,10.30
2022-11-11T08:32:35.467Z,10.40
2022-11-11T08:35:02.172Z,10.40
2022-11-11T08:37:29.249Z,10.50
2022-11-11T08:39:56.255Z,10.60
2022-11-11T08:42:23.136Z,10.70
2022-11-11T08:44:50.087Z,10.70
2022-11-11T08:47:16.798Z,10.80
2022-11-11T08:49:43.681Z,10.90
2022-11-11T08:52:10.422Z,11.00
2022-11-11T08:54:37.250Z,11.10
2022-11-11T08:57:03.964Z,11.10
2022-11-11T08:59:30.711Z,11.10
2022-11-11T09:01:57.587Z,11.20
2022-11-11T09:07:12.607Z,11.30
2022-11-11T09:09:39.320Z,11.40
2022-11-11T09:12:06.360Z,11.40
2022-11-11T09:14:33.165Z,11.40
2022-11-11T09:16:59.890Z,11.50
2022-11-11T09:19:26.599Z,11.50
2022-11-11T09:21:56.820Z,11.50
2022-11-11T09:24:23.603Z,11.50
2022-11-11T09:26:51.330Z,11.40
2022-11-11T09:29:19.361Z,11.40
2022-11-11T09:31:47.201Z,11.30
2022-11-11T09:34:14.565Z,11.40
2022-11-11T09:36:41.896Z,11.40
2022-11-11T09:39:08.718Z,11.40
2022-11-11T09:41:56.644Z,11.50
2022-11-11T09:45:15.673Z,11.50
2022-11-11T09:48:16.568Z,11.50
2022-11-11T09:50:53.464Z,11.50
2022-11-11T09:53:52.917Z,11.60
2022-11-11T09:56:35.715Z,11.60
2022-11-11T09:59:08.775Z,11.50
2022-11-11T10:01:52.393Z,11.60
2022-11-11T10:04:35.485Z,11.70
2022-11-11T10:07:12.097Z,11.70
2022-11-11T10:09:42.086Z,11.80
2022-11-11T10:12:15.453Z,11.80
2022-11-11T10:14:46.574Z,11.90
2022-11-11T10:17:40.691Z,12.00
2022-11-11T10:20:30.371Z,12.00
2022-11-11T10:23:05.947Z,12.10
2022-11-11T10:25:33.067Z,12.20
2022-11-11T10:28:02.804Z,12.30
2022-11-11T10:30:32.317Z,12.40
2022-11-11T10:33:06.752Z,12.50
2022-11-11T10:35:34.013Z,12.60
2022-11-11T10:38:06.991Z,12.70
2022-11-11T10:40:47.413Z,12.80
2022-11-11T10:43:40.136Z,12.90
2022-11-11T10:46:14.868Z,13.00
2022-11-11T10:49:00.941Z,13.00
2022-11-11T10:51:34.292Z,13.00
2022-11-11T10:54:06.934Z,13.10
2022-11-11T10:56:46.263Z,13.10
2022-11-11T10:59:23.457Z,13.20
2022-11-11T11:01:57.390Z,13.20
2022-11-11T11:04:34.282Z,13.10
2022-11-11T11:07:05.821Z,13.20
2022-11-11T11:09:38.256Z,13.20
2022-11-11T11:12:12.127Z,13.30
2022-11-11T11:14:48.779Z,13.20
2022-11-11T11:17:22.033Z,13.20
2022-11-11T11:20:19.582Z,13.10
2022-11-11T11:22:53.820Z,13.10
2022-11-11T11:25:21.904Z,13.10
2022-11-11T11:27:50.788Z,13.00
2022-11-11T11:30:24.304Z,13.00
2022-11-11T11:33:02.877Z,13.00
2022-11-11T11:35:41.130Z,13.10
2022-11-11T11:38:09.981Z,13.10
2022-11-11T11:40:59.058Z,13.10
2022-11-11T11:43:42.666Z,13.00
2022-11-11T11:46:30.133Z,13.00
2022-11-11T11:49:30.692Z,12.90
2022-11-11T11:52:03.923Z,12.80
2022-11-11T11:55:21.266Z,12.70
2022-11-11T11:58:04.093Z,12.70
2022-11-11T12:00:46.038Z,12.60
2022-11-11T12:03:41.701Z,12.60
2022-11-11T12:06:14.310Z,12.60
2022-11-11T12:09:07.049Z,12.70
2022-11-11T12:11:50.399Z,12.80
2022-11-11T12:14:31.595Z,12.90
2022-11-11T12:17:05.320Z,13.00
2022-11-11T12:20:02.735Z,13.10
2022-11-11T12:22:49.652Z,13.00
2022-11-11T12:25:19.334Z,13.00
2022-11-11T12:28:09.763Z,13.10
2022-11-11T12:30:42.336Z,13.10
2022-11-11T12:33:23.732Z,13.10
2022-11-11T12:36:12.655Z,13.10
2022-11-11T12:39:03.649Z,13.10
2022-11-11T12:41:59.571Z,13.30
2022-11-11T12:44:42.329Z,13.40
2022-11-11T12:47:34.936Z,13.50
2022-11-11T12:50:13.658Z,13.50
2022-11-11T12:52:46.403Z,13.50
2022-11-11T12:55:39.576Z,13.50
2022-11-11T12:58:18.173Z,13.60
2022-11-11T13:00:56.953Z,13.70
2022-11-11T13:03:36.031Z,13.70
2022-11-11T13:06:40.629Z,13.80
2022-11-11T13:09:42.913Z,13.80
2022-11-11T13:12:55.558Z,13.80
2022-11-11T13:15:24.861Z,13.90
2022-11-11T13:17:52.417Z,13.90
2022-11-11T13:20:24.978Z,13.90
2022-11-11T13:22:51.730Z,13.90
2022-11-11T13:25:23.833Z,14.00
2022-11-11T13:27:56.684Z,14.00
2022-11-11T13:30:29.348Z,14.00
2022-11-11T13:33:13.911Z,13.90
2022-11-11T13:35:59.536Z,13.90
2022-11-11T13:38:37.286Z,13.90
2022-11-11T13:41:09.044Z,13.80
2022-11-11T13:43:49.105Z,13.80
2022-11-11T13:46:49.580Z,13.70
2022-11-11T13:49:29.216Z,13.70
2022-11-11T13:52:02.869Z,13.60
2022-11-11T13:54:35.582Z,13.60
2022-11-11T13:57:14.592Z,13.60
2022-11-11T13:59:49.835Z,13.60
2022-11-11T14:02:19.526Z,13.60
2022-11-11T14:05:09.164Z,13.60
2022-11-11T14:07:45.049Z,13.50
2022-11-11T14:10:17.887Z,13.50
2022-11-11T14:12:48.836Z,13.60
2022-11-11T14:15:41.001Z,13.60
2022-11-11T14:18:19.943Z,13.60
2022-11-11T14:20:51.220Z,13.60
2022-11-11T14:23:27.414Z,13.60
2022-11-11T14:26:06.581Z,13.70
2022-11-11T14:28:37.840Z,13.70
2022-11-11T14:31:14.755Z,13.70
2022-11-11T14:33:50.260Z,13.70
2022-11-11T14:36:26.652Z,13.70
2022-11-11T14:39:30.688Z,13.70
2022-11-11T14:41:57.597Z,13.70
2022-11-11T14:44:30.033Z,13.60
2022-11-11T14:47:02.807Z,13.50
2022-11-11T14:49:54.331Z,13.40
2022-11-11T14:52:32.793Z,13.30
2022-11-11T14:55:15.400Z,13.20
2022-11-11T14:57:58.138Z,13.20
2022-11-11T15:00:33.781Z,13.10
2022-11-11T15:03:03.187Z,13.10
2022-11-11T15:05:48.773Z,13.00
2022-11-11T15:08:23.250Z,13.00
2022-11-11T15:11:15.512Z,12.90
2022-11-11T15:14:09.487Z,12.80
2022-11-11T15:16:45.382Z,12.70
2022-11-11T15:19:38.240Z,12.50
2022-11-11T15:22:25.927Z,12.30
2022-11-11T15:24:59.675Z,12.10
2022-11-11T15:27:34.596Z,11.90
2022-11-11T15:30:03.316Z,11.70
2022-11-11T15:32:52.479Z,11.60
2022-11-11T15:35:42.170Z,11.50
2022-11-11T15:38:16.059Z,11.40
2022-11-11T15:40:44.963Z,11.30
2022-11-11T15:43:23.386Z,11.20
2022-11-11T15:45:56.552Z,11.00
2022-11-11T15:48:32.375Z,10.90
2022-11-11T15:50:59.191Z,10.70
2022-11-11T15:53:29.360Z,10.60
2022-11-11T15:55:57.667Z,10.40
2022-11-11T15:58:30.231Z,10.30
2022-11-11T16:00:58.631Z,10.10
2022-11-11T16:03:42.153Z,10.00
2022-11-11T16:06:16.261Z,9.90
2022-11-11T16:08:53.116Z,9.80
2022-11-11T16:11:20.744Z,9.70
2022-11-11T16:13:58.539Z,9.70
2022-11-11T16:16:36.192Z,9.60
2022-11-11T16:19:29.623Z,9.50
2022-11-11T16:22:05.236Z,9.40
2022-11-11T16:24:38.032Z,9.40
2022-11-11T16:27:05.648Z,9.30
2022-11-11T16:29:40.278Z,9.30
2022-11-11T16:32:25.445Z,9.30
2022-11-11T16:34:54.179Z,9.20
2022-11-11T16:37:29.678Z,9.10
2022-11-11T16:39:56.469Z,9.10
2022-11-11T16:42:26.124Z,9.10
2022-11-11T16:45:18.013Z,9.00
2022-11-11T16:47:47.843Z,9.00
2022-11-11T16:50:22.957Z,9.00
2022-11-11T16:53:01.595Z,9.00
2022-11-11T16:55:47.570Z,9.00
2022-11-11T16:58:16.526Z,8.90
2022-11-11T17:01:03.190Z,8.90
2022-11-11T17:03:30.497Z,8.90
2022-11-11T17:06:08.440Z,8.90
2022-11-11T17:08:40.621Z,8.90
2022-11-11T17:11:30.576Z,8.80
2022-11-11T17:13:57.490Z,8.80
2022-11-11T17:16:24.219Z,8.80
2022-11-11T17:18:50.997Z,8.70
2022-11-11T17:21:17.673Z,8.70
2022-11-11T17:23:44.417Z,8.70
2022-11-11T17:26:11.140Z,8.80
2022-11-11T17:28:38.424Z,8.80
2022-11-11T17:31:10.604Z,8.80
2022-11-11T17:33:38.128Z,8.80
2022-11-11T17:36:05.376Z,8.80
2022-11-11T17:38:37.805Z,8.80
2022-11-11T17:41:04.989Z,8.90
2022-11-11T17:43:32.129Z,8.90
2022-11-11T17:46:03.216Z,8.90
2022-11-11T17:48:29.937Z,9.00
2022-11-11T17:50:56.901Z,9.00
2022-11-11T17:53:23.715Z,9.00
2022-11-11T17:55:53.405Z,9.10
2022-11-11T17:58:20.110Z,9.10
2022-11-11T18:00:47.063Z,9.00
2022-11-11T18:03:13.881Z,9.00
2022-11-11T18:05:40.584Z,9.00
2022-11-11T18:08:07.691Z,9.00
2022-11-11T18:10:35.043Z,9.00
2022-11-11T18:13:02.071Z,9.00
2022-11-11T18:15:28.911Z,9.00
2022-11-11T18:17:55.583Z,8.90
2022-11-11T18:20:22.291Z,8.90
2022-11-11T18:22:48.984Z,8.80
2022-11-11T18:25:15.671Z,8.80
2022-11-11T18:27:42.399Z,8.80
2022-11-11T18:30:09.991Z,8.80
2022-11-11T18:32:36.709Z,8.80
2022-11-11T18:35:03.651Z,8.70
2022-11-11T18:37:30.479Z,8.70
2022-11-11T18:39:57.154Z,8.70
2022-11-11T18:42:23.819Z,8.70
2022-11-11T18:44:50.499Z,8.70
2022-11-11T18:47:17.204Z,8.70
2022-11-11T18:49:43.886Z,8.60
2022-11-11T18:52:10.545Z,8.60
2022-11-11T18:54:37.336Z,8.50
2022-11-11T18:57:05.137Z,8.50
2022-11-11T18:59:31.833Z,8.50
2022-11-11T19:02:16.725Z,8.50
2022-11-11T19:04:43.800Z,8.50
2022-11-11T19:07:10.623Z,8.40
2022-11-11T19:09:37.420Z,8.40
2022-11-11T19:12:04.281Z,8.30
2022-11-11T19:14:31.118Z,8.30
2022-11-11T19:16:57.929Z,8.20
2022-11-11T19:19:27.867Z,8.20
2022-11-11T19:21:55.054Z,8.10
2022-11-11T19:24:23.093Z,8.10
2022-11-11T19:26:51.101Z,8.00
2022-11-11T19:29:18.642Z,7.90
2022-11-11T19:31:45.566Z,7.80
2022-11-11T19:34:12.396Z,7.70
2022-11-11T19:36:39.132Z,7.70
2022-11-11T19:39:05.847Z,7.60
2022-11-11T19:41:32.715Z,7.60
2022-11-11T19:43:59.769Z,7.50
2022-11-11T19:46:28.477Z,7.50
2022-11-11T19:48:57.830Z,7.50
2022-11-11T19:51:26.596Z,7.40
2022-11-11T19:53:56.906Z,7.40
2022-11-11T19:56:24.954Z,7.30
2022-11-11T19:58:52.916Z,7.30
2022-11-11T20:01:22.706Z,7.30
2022-11-11T20:03:51.104Z,7.30
2022-11-11T20:06:33.591Z,7.20
2022-11-11T20:09:03.773Z,7.20
2022-11-11T20:11:30.609Z,7.10
2022-11-11T20:13:58.281Z,7.00
2022-11-11T20:16:25.957Z,6.90
2022-11-11T20:18:56.818Z,6.80
2022-11-11T20:21:23.913Z,6.80
2022-11-11T20:23:50.789Z,6.70
2022-11-11T20:26:17.861Z,6.70
2022-11-11T20:28:44.700Z,6.60
2022-11-11T20:31:16.968Z,6.60
2022-11-11T20:33:44.568Z,6.50
2022-11-11T20:36:13.179Z,6.50
2022-11-11T20:38:40.207Z,6.50
2022-11-11T20:41:13.075Z,6.50
2022-11-11T20:43:40.420Z,6.40
2022-11-11T20:46:09.620Z,6.40
2022-11-11T20:48:36.879Z,6.40
2022-11-11T20:51:07.830Z,6.30
2022-11-11T20:53:34.619Z,6.30
2022-11-11T20:56:24.728Z,6.30
2022-11-11T20:58:55.243Z,6.30
2022-11-11T21:01:27.260Z,6.20
2022-11-11T21:03:56.672Z,6.20
2022-11-11T21:06:24.559Z,6.20
2022-11-11T21:08:51.648Z,6.10
2022-11-11T21:11:20.462Z,6.10
2022-11-11T21:13:48.038Z,6.00
2022-11-11T21:16:18.448Z,6.10
2022-11-11T21:18:46.199Z,6.00
2022-11-11T21:21:16.101Z,6.10
2022-11-11T21:23:43.559Z,6.00
2022-11-11T21:26:18.682Z,5.90
2022-11-11T21:28:46.389Z,5.90
2022-11-11T21:31:20.375Z,5.90
2022-11-11T21:33:57.000Z,5.90
2022-11-11T21:36:26.708Z,5.90
2022-11-11T21:38:53.948Z,5.90
2022-11-11T21:41:24.553Z,5.90
2022-11-11T21:43:52.644Z,5.90
2022-11-11T21:46:21.719Z,6.00
2022-11-11T21:48:49.167Z,6.00
2022-11-11T21:51:23.156Z,5.90
2022-11-11T21:54:02.177Z,5.90
2022-11-11T21:56:31.734Z,5.80
2022-11-11T21:59:01.074Z,5.80
2022-11-11T22:01:40.107Z,5.80
2022-11-11T22:04:12.050Z,5.80
2022-11-11T22:06:39.692Z,5.80
2022-11-11T22:09:06.910Z,5.70
2022-11-11T22:11:35.014Z,5.70
2022-11-11T22:14:03.241Z,5.70
2022-11-11T22:16:33.039Z,5.60
2022-11-11T22:19:01.936Z,5.70
2022-11-11T22:21:33.040Z,5.60
2022-11-11T22:24:03.425Z,5.60
2022-11-11T22:26:41.660Z,5.60
2022-11-11T22:29:11.248Z,5.50
2022-11-11T22:31:39.024Z,5.50
2022-11-11T22:34:08.029Z,5.40
2022-11-11T22:36:35.893Z,5.50
2022-11-11T22:39:03.879Z,5.40
2022-11-11T22:41:34.470Z,5.40
2022-11-11T22:44:01.729Z,5.40
2022-11-11T22:46:30.225Z,5.40
2022-11-11T22:49:01.695Z,5.40
2022-11-11T22:51:30.728Z,5.30
2022-11-11T22:54:06.845Z,5.20
2022-11-11T22:56:35.109Z,5.30
2022-11-11T22:59:04.120Z,5.30
2022-11-11T23:01:32.348Z,5.30
2022-11-11T23:04:04.432Z,5.30
2022-11-11T23:06:38.302Z,5.20
2022-11-11T23:09:05.911Z,5.10
2022-11-11T23:11:34.156Z,5.10
2022-11-11T23:14:06.884Z,5.10
2022-11-11T23:16:34.021Z,5.00
2022-11-11T23:19:04.588Z,5.00
2022-11-11T23:21:32.338Z,5.00
2022-11-11T23:23:59.536Z,5.00
2022-11-11T23:26:29.324Z,5.10
2022-11-11T23:28:56.473Z,5.20
2022-11-11T23:31:29.821Z,5.20
2022-11-11T23:33:59.079Z,5.30
2022-11-11T23:36:27.447Z,5.20
2022-11-11T23:38:54.458Z,5.20
2022-11-11T23:41:21.208Z,5.20
2022-11-11T23:43:47.960Z,5.10
2022-11-11T23:46:14.679Z,5.10
2022-11-11T23:48:42.002Z,5.00
2022-11-11T23:51:08.755Z,5.10
2022-11-11T23:53:35.536Z,5.10
2022-11-11T23:56:03.785Z,5.10
2022-11-11T23:58:30.610Z,5.10
